Time,TemperatureF,DewpointF,PressureIn,WindDirection,WindDirectionDegrees,WindSpeedMPH,WindSpeedGustMPH,Humidity,HourlyPrecipIn,Conditions,Clouds,dailyrainin,SoftwareType,DateUTC
2013-03-10 00:02:00,37.9,36.9,30.48,West,266,1.0,1.0,96,0.00,,,0.00,meteohub,2013-03-10 08:02:00,
2013-03-10 00:07:00,37.9,36.9,30.48,West,269,1.0,1.0,96,0.00,,,0.00,meteohub,2013-03-10 08:07:00,
2013-03-10 00:12:00,37.9,36.9,30.48,West,274,0.0,1.0,96,0.00,,,0.00,meteohub,2013-03-10 08:12:00,
2013-03-10 00:17:00,37.9,36.9,30.48,West,274,0.0,1.0,96,0.00,,,0.00,meteohub,2013-03-10 08:17:00,
2013-03-10 00:22:00,37.8,36.7,30.48,West,274,0.0,1.0,96,0.00,,,0.00,meteohub,2013-03-10 08:22:00,
2013-03-10 00:27:00,37.6,36.5,30.48,West,274,1.0,1.0,96,0.00,,,0.00,meteohub,2013-03-10 08:27:00,
2013-03-10 00:32:00,37.4,36.3,30.48,West,276,1.0,1.0,96,0.00,,,0.00,meteohub,2013-03-10 08:32:00,
2013-03-10 00:37:00,37.4,36.7,30.49,WNW,284,0.0,1.0,97,0.00,,,0.00,meteohub,2013-03-10 08:37:00,
2013-03-10 00:42:00,37.2,36.1,30.49,WNW,283,0.0,2.0,96,0.00,,,0.00,meteohub,2013-03-10 08:42:00,
2013-03-10 00:48:00,37.2,36.5,30.48,WNW,284,1.0,2.0,97,0.00,,,0.00,meteohub,2013-03-10 08:48:00,
2013-03-10 00:53:00,37.2,36.5,30.48,WNW,283,0.0,2.0,97,0.00,,,0.00,meteohub,2013-03-10 08:53:00,
2013-03-10 00:58:00,37.0,36.3,30.48,WNW,282,0.0,1.0,97,0.00,,,0.00,meteohub,2013-03-10 08:58:00,
2013-03-10 01:03:00,37.0,36.3,30.48,WNW,282,0.0,1.0,97,0.00,,,0.00,meteohub,2013-03-10 09:03:00,
2013-03-10 01:08:00,37.2,36.5,30.48,WNW,285,1.0,1.0,97,0.00,,,0.00,meteohub,2013-03-10 09:08:00,
2013-03-10 01:13:00,37.2,36.5,30.48,WNW,285,0.0,1.0,97,0.00,,,0.00,meteohub,2013-03-10 09:13:00,
2013-03-10 01:18:00,37.2,36.5,30.48,West,280,1.0,1.0,97,0.00,,,0.00,meteohub,2013-03-10 09:18:00,
2013-03-10 01:23:00,37.2,36.5,30.49,WNW,284,0.0,2.0,97,0.00,,,0.00,meteohub,2013-03-10 09:23:00,
2013-03-10 01:28:00,37.6,37.0,30.49,WNW,284,0.0,2.0,98,0.00,,,0.00,meteohub,2013-03-10 09:28:00,
2013-03-10 01:33:00,37.4,36.7,30.48,West,278,0.0,2.0,97,0.00,,,0.00,meteohub,2013-03-10 09:33:00,
2013-03-10 01:38:00,37.2,36.5,30.48,West,278,0.0,1.0,97,0.00,,,0.00,meteohub,2013-03-10 09:38:00,
2013-03-10 01:43:00,37.2,36.5,30.48,West,278,1.0,1.0,97,0.00,,,0.00,meteohub,2013-03-10 09:43:00,
2013-03-10 01:48:00,37.4,36.7,30.48,West,280,0.0,1.0,97,0.00,,,0.00,meteohub,2013-03-10 09:48:00,
2013-03-10 01:53:00,37.6,37.0,30.48,West,280,0.0,1.0,98,0.00,,,0.00,meteohub,2013-03-10 09:53:00,
2013-03-10 01:58:00,37.4,36.7,30.48,West,280,0.0,1.0,97,0.00,,,0.00,meteohub,2013-03-10 09:58:00,
2013-03-10 03:03:00,37.2,36.5,30.48,West,280,0.0,1.0,97,0.00,,,0.00,meteohub,2013-03-10 10:03:00,
2013-03-10 03:08:00,37.2,36.7,30.48,West,280,0.0,1.0,98,0.00,,,0.00,meteohub,2013-03-10 10:08:00,
2013-03-10 03:13:00,37.0,36.3,30.48,West,267,0.0,1.0,97,0.00,,,0.00,meteohub,2013-03-10 10:13:00,
2013-03-10 03:18:00,36.9,36.1,30.49,WSW,243,0.0,1.0,97,0.00,,,0.00,meteohub,2013-03-10 10:18:00,
2013-03-10 03:24:00,37.0,36.5,30.48,West,267,1.0,1.0,98,0.00,,,0.00,meteohub,2013-03-10 10:24:00,
2013-03-10 03:29:00,37.2,36.7,30.48,West,274,0.0,2.0,98,0.00,,,0.00,meteohub,2013-03-10 10:29:00,
2013-03-10 03:34:00,37.4,36.9,30.48,West,276,1.0,2.0,98,0.00,,,0.00,meteohub,2013-03-10 10:34:00,
2013-03-10 03:39:00,37.6,37.0,30.48,WNW,285,1.0,1.0,98,0.00,,,0.00,meteohub,2013-03-10 10:39:00,
2013-03-10 03:44:00,37.9,37.4,30.48,WNW,282,0.0,2.0,98,0.00,,,0.00,meteohub,2013-03-10 10:44:00,
2013-03-10 03:49:00,37.9,37.4,30.48,WNW,283,0.0,2.0,98,0.00,,,0.00,meteohub,2013-03-10 10:49:00,
2013-03-10 03:54:00,38.1,37.6,30.48,WNW,282,0.0,2.0,98,0.00,,,0.00,meteohub,2013-03-10 10:54:00,
2013-03-10 03:59:00,38.1,37.6,30.48,WNW,282,0.0,1.0,98,0.00,,,0.00,meteohub,2013-03-10 10:59:00,
2013-03-10 04:04:00,38.1,37.6,30.48,WNW,282,0.0,1.0,98,0.00,,,0.00,meteohub,2013-03-10 11:04:00,
2013-03-10 04:09:00,38.3,37.8,30.48,WNW,283,0.0,1.0,98,0.00,,,0.00,meteohub,2013-03-10 11:09:00,
2013-03-10 04:14:00,38.3,37.8,30.48,WNW,283,0.0,1.0,98,0.00,,,0.00,meteohub,2013-03-10 11:14:00,
2013-03-10 04:19:00,38.3,37.8,30.48,WNW,282,0.0,0.0,98,0.00,,,0.00,meteohub,2013-03-10 11:19:00,
2013-03-10 04:24:00,38.3,37.8,30.48,WNW,283,0.0,0.0,98,0.00,,,0.00,meteohub,2013-03-10 11:24:00,
2013-03-10 04:29:00,38.3,37.8,30.48,WNW,282,0.0,0.0,98,0.00,,,0.00,meteohub,2013-03-10 11:29:00,
2013-03-10 04:34:00,38.5,37.9,30.48,WNW,283,0.0,0.0,98,0.00,,,0.00,meteohub,2013-03-10 11:34:00,
2013-03-10 04:40:00,38.5,37.9,30.48,WNW,283,0.0,0.0,98,0.00,,,0.00,meteohub,2013-03-10 11:40:00,
2013-03-10 04:45:00,38.3,37.6,30.48,WNW,283,0.0,0.0,97,0.00,,,0.00,meteohub,2013-03-10 11:45:00,
2013-03-10 04:50:00,38.5,37.8,30.48,WNW,283,0.0,0.0,97,0.00,,,0.00,meteohub,2013-03-10 11:50:00,
2013-03-10 04:55:00,38.3,37.6,30.48,WNW,282,0.0,0.0,97,0.00,,,0.00,meteohub,2013-03-10 11:55:00,
2013-03-10 05:00:00,38.5,37.9,30.48,WNW,282,1.0,0.0,98,0.00,,,0.00,meteohub,2013-03-10 12:00:00,
2013-03-10 05:05:00,38.5,37.9,30.48,WNW,283,0.0,1.0,98,0.00,,,0.00,meteohub,2013-03-10 12:05:00,
2013-03-10 05:10:00,38.5,37.9,30.48,WNW,282,0.0,1.0,98,0.00,,,0.00,meteohub,2013-03-10 12:10:00,
2013-03-10 05:15:00,38.5,37.9,30.48,WNW,282,0.0,1.0,98,0.00,,,0.00,meteohub,2013-03-10 12:15:00,
2013-03-10 05:20:00,38.5,37.9,30.48,WNW,282,0.0,0.0,98,0.00,,,0.00,meteohub,2013-03-10 12:20:00,
2013-03-10 05:25:00,38.7,38.1,30.48,WNW,283,0.0,0.0,98,0.00,,,0.00,meteohub,2013-03-10 12:25:00,
2013-03-10 05:30:00,38.7,38.1,30.48,WNW,283,0.0,0.0,98,0.00,,,0.00,meteohub,2013-03-10 12:30:00,
2013-03-10 05:35:00,38.7,37.9,30.49,WNW,282,0.0,0.0,97,0.00,,,0.00,meteohub,2013-03-10 12:35:00,
2013-03-10 05:40:00,38.7,37.9,30.49,WNW,283,0.0,0.0,97,0.00,,,0.00,meteohub,2013-03-10 12:40:00,
2013-03-10 05:45:00,38.7,38.1,30.49,WNW,282,0.0,0.0,98,0.00,,,0.00,meteohub,2013-03-10 12:45:00,
2013-03-10 05:50:00,38.8,38.3,30.49,WNW,282,0.0,0.0,98,0.00,,,0.00,meteohub,2013-03-10 12:50:00,
2013-03-10 05:55:00,38.8,38.3,30.49,WNW,283,0.0,0.0,98,0.00,,,0.00,meteohub,2013-03-10 12:55:00,
2013-03-10 06:00:00,38.8,38.3,30.49,WNW,282,0.0,0.0,98,0.00,,,0.00,meteohub,2013-03-10 13:00:00,
2013-03-10 06:05:00,38.8,38.3,30.49,WNW,283,0.0,0.0,98,0.00,,,0.00,meteohub,2013-03-10 13:05:00,
2013-03-10 06:10:00,39.0,38.5,30.49,WNW,283,0.0,1.0,98,0.00,,,0.00,meteohub,2013-03-10 13:10:00,
2013-03-10 06:16:00,39.0,38.5,30.48,WNW,282,0.0,1.0,98,0.00,,,0.00,meteohub,2013-03-10 13:16:00,
2013-03-10 06:21:00,39.2,38.7,30.48,WNW,283,0.0,1.0,98,0.00,,,0.00,meteohub,2013-03-10 13:21:00,
2013-03-10 06:26:00,39.4,38.8,30.48,WNW,283,0.0,1.0,98,0.00,,,0.00,meteohub,2013-03-10 13:26:00,
2013-03-10 06:31:00,39.4,38.8,30.48,WNW,283,0.0,1.0,98,0.00,,,0.00,meteohub,2013-03-10 13:31:00,
2013-03-10 06:36:00,39.4,38.8,30.48,WNW,282,0.0,0.0,98,0.00,,,0.00,meteohub,2013-03-10 13:36:00,
2013-03-10 06:41:00,39.4,38.8,30.48,WNW,282,0.0,0.0,98,0.00,,,0.00,meteohub,2013-03-10 13:41:00,
2013-03-10 06:46:00,39.4,38.8,30.48,WNW,284,1.0,1.0,98,0.00,,,0.00,meteohub,2013-03-10 13:46:00,
2013-03-10 06:51:00,39.4,38.8,30.48,WNW,283,0.0,2.0,98,0.00,,,0.00,meteohub,2013-03-10 13:51:00,
2013-03-10 06:56:00,39.6,39.0,30.48,West,281,0.0,2.0,98,0.00,,,0.00,meteohub,2013-03-10 13:56:00,
2013-03-10 07:01:00,39.6,39.0,30.47,WSW,240,0.0,2.0,98,0.00,,,0.00,meteohub,2013-03-10 14:01:00,
2013-03-10 07:06:00,39.6,39.0,30.47,WSW,240,0.0,1.0,98,0.00,,,0.00,meteohub,2013-03-10 14:06:00,
2013-03-10 07:11:00,39.6,39.0,30.47,West,259,1.0,1.0,98,0.00,,,0.00,meteohub,2013-03-10 14:11:00,
2013-03-10 07:16:00,39.6,39.0,30.47,West,281,1.0,1.0,98,0.00,,,0.00,meteohub,2013-03-10 14:16:00,
2013-03-10 07:21:00,39.6,39.0,30.47,West,264,1.0,1.0,98,0.00,,,0.00,meteohub,2013-03-10 14:21:00,
2013-03-10 07:26:00,39.6,39.0,30.47,West,269,1.0,1.0,98,0.00,,,0.00,meteohub,2013-03-10 14:26:00,
2013-03-10 07:31:00,39.6,39.0,30.47,West,271,0.0,1.0,98,0.00,,,0.00,meteohub,2013-03-10 14:31:00,
2013-03-10 07:36:00,39.6,39.0,30.46,West,271,0.0,1.0,98,0.00,,,0.00,meteohub,2013-03-10 14:36:00,
2013-03-10 07:41:00,39.6,39.0,30.46,West,271,0.0,1.0,98,0.00,,,0.00,meteohub,2013-03-10 14:41:00,
2013-03-10 07:46:00,39.6,39.0,30.46,West,271,0.0,1.0,98,0.00,,,0.00,meteohub,2013-03-10 14:46:00,
2013-03-10 07:51:00,39.6,39.0,30.47,West,271,0.0,0.0,98,0.00,,,0.00,meteohub,2013-03-10 14:51:00,
2013-03-10 07:56:00,39.6,39.0,30.46,West,271,0.0,0.0,98,0.00,,,0.00,meteohub,2013-03-10 14:56:00,
2013-03-10 08:02:00,39.6,39.0,30.46,West,271,0.0,1.0,98,0.00,,,0.00,meteohub,2013-03-10 15:02:00,
2013-03-10 08:07:00,39.6,39.0,30.47,West,271,0.0,1.0,98,0.00,,,0.00,meteohub,2013-03-10 15:07:00,
2013-03-10 08:12:00,39.7,39.2,30.46,West,271,0.0,1.0,98,0.00,,,0.00,meteohub,2013-03-10 15:12:00,
2013-03-10 08:17:00,39.9,39.4,30.47,West,271,0.0,1.0,98,0.00,,,0.00,meteohub,2013-03-10 15:17:00,
2013-03-10 08:22:00,40.1,39.6,30.47,West,271,0.0,1.0,98,0.00,,,0.00,meteohub,2013-03-10 15:22:00,
2013-03-10 08:27:00,40.3,39.7,30.47,West,271,0.0,1.0,98,0.00,,,0.00,meteohub,2013-03-10 15:27:00,
2013-03-10 08:32:00,40.5,39.9,30.46,West,271,0.0,1.0,98,0.00,,,0.00,meteohub,2013-03-10 15:32:00,
2013-03-10 08:37:00,40.6,40.1,30.46,West,271,0.0,1.0,98,0.00,,,0.00,meteohub,2013-03-10 15:37:00,
2013-03-10 08:42:00,40.8,40.3,30.46,WSW,257,0.0,1.0,98,0.00,,,0.00,meteohub,2013-03-10 15:42:00,
2013-03-10 08:47:00,41.2,40.6,30.46,West,259,0.0,1.0,98,0.00,,,0.00,meteohub,2013-03-10 15:47:00,
2013-03-10 08:52:00,41.4,40.8,30.46,WSW,258,0.0,1.0,98,0.00,,,0.00,meteohub,2013-03-10 15:52:00,
2013-03-10 08:57:00,41.4,40.6,30.46,WSW,258,0.0,1.0,97,0.00,,,0.00,meteohub,2013-03-10 15:57:00,
2013-03-10 09:02:00,41.5,40.8,30.46,SSE,158,0.0,1.0,97,0.00,,,0.00,meteohub,2013-03-10 16:02:00,
2013-03-10 09:07:00,41.5,40.5,30.47,South,186,0.0,1.0,96,0.00,,,0.00,meteohub,2013-03-10 16:07:00,
2013-03-10 09:12:00,41.7,40.6,30.47,South,184,0.0,1.0,96,0.00,,,0.00,meteohub,2013-03-10 16:12:00,
2013-03-10 09:17:00,41.7,40.6,30.46,SSE,153,0.0,1.0,96,0.00,,,0.00,meteohub,2013-03-10 16:17:00,
2013-03-10 09:22:00,41.7,40.6,30.46,SSE,153,0.0,1.0,96,0.00,,,0.00,meteohub,2013-03-10 16:22:00,
2013-03-10 09:27:00,41.7,40.5,30.46,SE,146,0.0,1.0,95,0.00,,,0.00,meteohub,2013-03-10 16:27:00,
2013-03-10 09:32:00,42.1,41.0,30.46,SSE,147,0.0,1.0,96,0.00,,,0.00,meteohub,2013-03-10 16:32:00,
2013-03-10 09:37:00,42.4,41.2,30.46,WSW,240,0.0,1.0,95,0.00,,,0.00,meteohub,2013-03-10 16:37:00,
2013-03-10 09:42:00,42.4,41.2,30.46,SW,236,0.0,1.0,95,0.00,,,0.00,meteohub,2013-03-10 16:42:00,
2013-03-10 09:47:00,42.6,41.0,30.46,ESE,113,1.0,1.0,94,0.00,,,0.00,meteohub,2013-03-10 16:47:00,
2013-03-10 09:52:00,42.6,40.8,30.46,ESE,122,1.0,1.0,93,0.00,,,0.00,meteohub,2013-03-10 16:52:00,
2013-03-10 09:57:00,42.4,40.6,30.46,ESE,113,0.0,1.0,93,0.00,,,0.00,meteohub,2013-03-10 16:57:00,
2013-03-10 10:02:00,42.4,40.6,30.47,ESE,111,1.0,1.0,93,0.00,,,0.00,meteohub,2013-03-10 17:02:00,
2013-03-10 10:07:00,42.4,40.8,30.46,East,88,1.0,1.0,94,0.00,,,0.00,meteohub,2013-03-10 17:07:00,
2013-03-10 10:12:00,42.6,40.8,30.46,ENE,60,1.0,2.0,93,0.00,,,0.00,meteohub,2013-03-10 17:12:00,
2013-03-10 10:17:00,42.6,40.5,30.46,East,89,2.0,3.0,92,0.00,,,0.00,meteohub,2013-03-10 17:17:00,
2013-03-10 10:22:00,42.4,40.3,30.46,ENE,76,2.0,3.0,92,0.00,,,0.00,meteohub,2013-03-10 17:22:00,
2013-03-10 10:27:00,42.4,40.3,30.47,East,100,1.0,3.0,92,0.00,,,0.00,meteohub,2013-03-10 17:27:00,
2013-03-10 10:32:00,42.6,40.8,30.47,East,82,2.0,3.0,93,0.00,,,0.00,meteohub,2013-03-10 17:32:00,
2013-03-10 10:37:00,42.6,40.5,30.47,ENE,72,0.0,3.0,92,0.00,,,0.00,meteohub,2013-03-10 17:37:00,
2013-03-10 10:42:00,43.0,40.5,30.46,ENE,60,1.0,3.0,91,0.00,,,0.00,meteohub,2013-03-10 17:42:00,
2013-03-10 10:47:00,43.0,40.8,30.46,ESE,110,1.0,3.0,92,0.00,,,0.00,meteohub,2013-03-10 17:47:00,
2013-03-10 10:52:00,43.2,41.0,30.46,ENE,77,1.0,3.0,92,0.00,,,0.00,meteohub,2013-03-10 17:52:00,
2013-03-10 10:57:00,43.2,40.6,30.47,NNE,33,1.0,3.0,91,0.00,,,0.00,meteohub,2013-03-10 17:57:00,
2013-03-10 11:02:00,43.2,40.6,30.46,North,8,0.0,3.0,91,0.00,,,0.00,meteohub,2013-03-10 18:02:00,
2013-03-10 11:07:00,43.3,40.8,30.46,NE,37,1.0,3.0,91,0.00,,,0.00,meteohub,2013-03-10 18:07:00,
2013-03-10 11:12:00,43.5,41.4,30.46,ENE,57,0.0,4.0,92,0.00,,,0.00,meteohub,2013-03-10 18:12:00,
2013-03-10 11:17:00,43.5,40.5,30.46,NE,46,1.0,4.0,89,0.00,,,0.00,meteohub,2013-03-10 18:17:00,
2013-03-10 11:22:00,43.5,40.8,30.46,NNE,20,0.0,3.0,90,0.00,,,0.00,meteohub,2013-03-10 18:22:00,
2013-03-10 11:27:00,43.9,41.2,30.46,NNE,20,0.0,3.0,90,0.00,,,0.00,meteohub,2013-03-10 18:27:00,
2013-03-10 11:32:00,43.9,40.8,30.46,NNE,30,0.0,2.0,89,0.00,,,0.00,meteohub,2013-03-10 18:32:00,
2013-03-10 11:37:00,44.1,41.4,30.46,NNE,30,0.0,2.0,90,0.00,,,0.00,meteohub,2013-03-10 18:37:00,
2013-03-10 11:42:00,44.2,41.5,30.46,ESE,119,1.0,2.0,90,0.00,,,0.00,meteohub,2013-03-10 18:42:00,
2013-03-10 11:47:00,44.2,41.2,30.46,ENE,75,2.0,2.0,89,0.00,,,0.00,meteohub,2013-03-10 18:47:00,
2013-03-10 11:52:00,44.1,41.0,30.46,ENE,78,0.0,2.0,89,0.00,,,0.00,meteohub,2013-03-10 18:52:00,
2013-03-10 11:57:00,44.2,41.5,30.46,East,87,0.0,2.0,90,0.00,,,0.00,meteohub,2013-03-10 18:57:00,
2013-03-10 12:02:00,44.4,41.4,30.46,East,96,0.0,2.0,89,0.00,,,0.00,meteohub,2013-03-10 19:02:00,
2013-03-10 12:07:00,44.4,41.4,30.45,East,82,0.0,2.0,89,0.00,,,0.00,meteohub,2013-03-10 19:07:00,
2013-03-10 12:12:00,44.4,41.4,30.45,ESE,108,1.0,2.0,89,0.00,,,0.00,meteohub,2013-03-10 19:12:00,
2013-03-10 12:17:00,44.8,41.7,30.45,East,93,0.0,2.0,89,0.00,,,0.00,meteohub,2013-03-10 19:17:00,
2013-03-10 12:22:00,45.1,42.1,30.45,South,170,1.0,2.0,89,0.00,,,0.00,meteohub,2013-03-10 19:22:00,
2013-03-10 12:27:00,45.7,42.3,30.45,East,79,1.0,2.0,88,0.00,,,0.00,meteohub,2013-03-10 19:27:00,
2013-03-10 12:32:00,45.3,41.9,30.45,ENE,64,2.0,4.0,88,0.00,,,0.00,meteohub,2013-03-10 19:32:00,
2013-03-10 12:37:00,45.3,42.6,30.45,East,99,3.0,4.0,90,0.00,,,0.00,meteohub,2013-03-10 19:37:00,
2013-03-10 12:42:00,45.3,42.3,30.45,ENE,75,3.0,4.0,89,0.00,,,0.00,meteohub,2013-03-10 19:42:00,
2013-03-10 12:47:00,45.1,42.1,30.45,East,99,4.0,4.0,89,0.00,,,0.00,meteohub,2013-03-10 19:47:00,
2013-03-10 12:52:00,45.1,41.7,30.45,ENE,77,3.0,4.0,88,0.00,,,0.00,meteohub,2013-03-10 19:52:00,
2013-03-10 12:57:00,45.7,42.3,30.45,East,101,4.0,4.0,88,0.00,,,0.00,meteohub,2013-03-10 19:57:00,
2013-03-10 13:02:00,45.9,42.4,30.45,SE,129,2.0,5.0,88,0.00,,,0.00,meteohub,2013-03-10 20:02:00,
2013-03-10 13:07:00,46.6,43.0,30.45,East,90,4.0,5.0,87,0.00,,,0.00,meteohub,2013-03-10 20:07:00,
2013-03-10 13:12:00,46.4,42.1,30.45,East,79,2.0,5.0,85,0.00,,,0.00,meteohub,2013-03-10 20:12:00,
2013-03-10 13:17:00,46.0,42.1,30.45,East,92,6.0,6.0,86,0.00,,,0.00,meteohub,2013-03-10 20:17:00,
2013-03-10 13:22:00,45.7,42.1,30.45,East,79,5.0,7.0,87,0.00,,,0.00,meteohub,2013-03-10 20:22:00,
2013-03-10 13:27:00,45.7,42.3,30.45,East,80,6.0,7.0,88,0.00,,,0.00,meteohub,2013-03-10 20:27:00,
2013-03-10 13:32:00,45.9,41.9,30.44,East,86,4.0,7.0,86,0.00,,,0.00,meteohub,2013-03-10 20:32:00,
2013-03-10 13:38:00,45.7,42.1,30.44,East,80,3.0,7.0,87,0.00,,,0.00,meteohub,2013-03-10 20:38:00,
2013-03-10 13:43:00,45.9,42.4,30.44,ENE,75,2.0,7.0,88,0.00,,,0.00,meteohub,2013-03-10 20:43:00,
2013-03-10 13:49:00,46.2,42.8,30.44,NE,34,3.0,6.0,88,0.00,,,0.00,meteohub,2013-03-10 20:49:00,
2013-03-10 13:54:00,46.6,43.0,30.44,ENE,72,1.0,6.0,87,0.00,,,0.00,meteohub,2013-03-10 20:54:00,
2013-03-10 13:59:00,46.9,42.6,30.45,East,84,2.0,6.0,85,0.00,,,0.00,meteohub,2013-03-10 20:59:00,
2013-03-10 14:04:00,46.8,42.4,30.44,North,8,0.0,6.0,85,0.00,,,0.00,meteohub,2013-03-10 21:04:00,
2013-03-10 14:10:00,46.6,42.1,30.44,East,82,4.0,4.0,84,0.00,,,0.00,meteohub,2013-03-10 21:10:00,
2013-03-10 14:15:00,46.2,41.7,30.44,East,85,3.0,5.0,84,0.00,,,0.00,meteohub,2013-03-10 21:15:00,
2013-03-10 14:20:00,46.2,41.0,30.44,East,82,2.0,5.0,82,0.00,,,0.00,meteohub,2013-03-10 21:20:00,
2013-03-10 14:25:00,46.2,41.4,30.44,East,91,4.0,5.0,83,0.00,,,0.00,meteohub,2013-03-10 21:25:00,
2013-03-10 14:30:00,46.2,41.0,30.44,East,88,2.0,5.0,82,0.00,,,0.00,meteohub,2013-03-10 21:30:00,
2013-03-10 14:35:00,46.2,40.6,30.44,ENE,70,1.0,4.0,81,0.00,,,0.00,meteohub,2013-03-10 21:35:00,
2013-03-10 14:41:00,46.2,41.0,30.43,East,100,2.0,5.0,82,0.00,,,0.00,meteohub,2013-03-10 21:41:00,
2013-03-10 14:47:00,46.0,40.8,30.43,East,100,2.0,5.0,82,0.00,,,0.00,meteohub,2013-03-10 21:47:00,
2013-03-10 14:52:00,46.2,41.0,30.43,ESE,103,3.0,5.0,82,0.00,,,0.00,meteohub,2013-03-10 21:52:00,
2013-03-10 14:57:00,46.0,40.8,30.43,East,88,3.0,5.0,82,0.00,,,0.00,meteohub,2013-03-10 21:57:00,
2013-03-10 15:02:00,46.0,41.2,30.43,East,92,3.0,6.0,83,0.00,,,0.00,meteohub,2013-03-10 22:02:00,
2013-03-10 15:07:00,45.9,41.0,30.43,East,84,2.0,6.0,83,0.00,,,0.00,meteohub,2013-03-10 22:07:00,
2013-03-10 15:12:00,46.2,41.9,30.43,East,88,1.0,6.0,85,0.00,,,0.00,meteohub,2013-03-10 22:12:00,
2013-03-10 15:17:00,46.2,41.7,30.43,ENE,78,2.0,6.0,84,0.00,,,0.00,meteohub,2013-03-10 22:17:00,
2013-03-10 15:23:00,46.2,41.4,30.43,East,86,1.0,6.0,83,0.00,,,0.00,meteohub,2013-03-10 22:23:00,
2013-03-10 15:28:00,46.2,41.4,30.43,ENE,74,2.0,4.0,83,0.00,,,0.00,meteohub,2013-03-10 22:28:00,
2013-03-10 15:33:00,46.2,41.4,30.43,East,99,2.0,4.0,83,0.00,,,0.00,meteohub,2013-03-10 22:33:00,
2013-03-10 15:38:00,46.2,41.4,30.44,East,100,2.0,4.0,83,0.00,,,0.00,meteohub,2013-03-10 22:38:00,
2013-03-10 15:43:00,46.2,41.0,30.44,ESE,103,3.0,4.0,82,0.00,,,0.00,meteohub,2013-03-10 22:43:00,
2013-03-10 15:49:00,46.2,41.4,30.43,ESE,108,4.0,4.0,83,0.00,,,0.00,meteohub,2013-03-10 22:49:00,
2013-03-10 15:54:00,46.0,41.2,30.44,ESE,117,2.0,5.0,83,0.00,,,0.00,meteohub,2013-03-10 22:54:00,
2013-03-10 15:59:00,46.0,41.5,30.44,ESE,119,1.0,5.0,84,0.00,,,0.00,meteohub,2013-03-10 22:59:00,
2013-03-10 16:04:00,46.2,41.0,30.44,ESE,121,2.0,5.0,82,0.00,,,0.00,meteohub,2013-03-10 23:04:00,
2013-03-10 16:09:00,46.0,41.5,30.44,East,98,2.0,5.0,84,0.00,,,0.00,meteohub,2013-03-10 23:09:00,
2013-03-10 16:14:00,46.0,40.8,30.44,East,101,2.0,4.0,82,0.00,,,0.00,meteohub,2013-03-10 23:14:00,
2013-03-10 16:19:00,46.0,41.5,30.44,East,90,1.0,3.0,84,0.00,,,0.00,meteohub,2013-03-10 23:19:00,
2013-03-10 16:25:00,46.0,41.2,30.43,SE,137,0.0,3.0,83,0.00,,,0.00,meteohub,2013-03-10 23:25:00,
2013-03-10 16:30:00,46.0,41.5,30.43,ESE,105,0.0,2.0,84,0.00,,,0.00,meteohub,2013-03-10 23:30:00,
2013-03-10 16:35:00,46.2,41.7,30.43,ESE,104,0.0,1.0,84,0.00,,,0.00,meteohub,2013-03-10 23:35:00,
2013-03-10 16:40:00,46.2,41.7,30.43,ESE,103,0.0,1.0,84,0.00,,,0.00,meteohub,2013-03-10 23:40:00,
2013-03-10 16:45:00,46.2,41.7,30.43,ENE,75,1.0,1.0,84,0.00,,,0.00,meteohub,2013-03-10 23:45:00,
2013-03-10 16:50:00,46.2,41.7,30.43,ENE,74,0.0,2.0,84,0.00,,,0.00,meteohub,2013-03-10 23:50:00,
2013-03-10 16:55:00,46.2,41.4,30.43,NE,40,2.0,2.0,83,0.00,,,0.00,meteohub,2013-03-10 23:55:00,
2013-03-10 17:01:00,46.0,41.5,30.43,NE,43,2.0,2.0,84,0.00,,,0.00,meteohub,2013-03-11 00:01:00,
2013-03-10 17:06:00,46.0,41.5,30.43,NE,34,1.0,2.0,84,0.00,,,0.00,meteohub,2013-03-11 00:06:00,
2013-03-10 17:12:00,45.9,41.4,30.43,NE,40,1.0,2.0,84,0.00,,,0.00,meteohub,2013-03-11 00:12:00,
2013-03-10 17:17:00,45.9,41.4,30.43,NE,40,0.0,2.0,84,0.00,,,0.00,meteohub,2013-03-11 00:17:00,
2013-03-10 17:22:00,45.9,41.4,30.43,NE,40,0.0,2.0,84,0.00,,,0.00,meteohub,2013-03-11 00:22:00,
2013-03-10 17:27:00,45.9,41.5,30.43,NE,40,0.0,2.0,85,0.00,,,0.00,meteohub,2013-03-11 00:27:00,
2013-03-10 17:32:00,45.9,41.9,30.43,NE,40,0.0,1.0,86,0.00,,,0.00,meteohub,2013-03-11 00:32:00,
2013-03-10 17:37:00,45.9,41.5,30.43,NE,40,0.0,1.0,85,0.00,,,0.00,meteohub,2013-03-11 00:37:00,
2013-03-10 17:42:00,45.9,41.5,30.43,NE,40,0.0,0.0,85,0.00,,,0.00,meteohub,2013-03-11 00:42:00,
2013-03-10 17:47:00,45.9,41.5,30.43,NE,40,0.0,0.0,85,0.00,,,0.00,meteohub,2013-03-11 00:47:00,
2013-03-10 17:53:00,45.7,41.4,30.43,NE,40,0.0,0.0,85,0.00,,,0.00,meteohub,2013-03-11 00:53:00,
2013-03-10 17:58:00,45.7,41.4,30.44,NE,40,0.0,1.0,85,0.00,,,0.00,meteohub,2013-03-11 00:58:00,
2013-03-10 18:03:00,45.7,41.4,30.43,NE,37,0.0,1.0,85,0.00,,,0.00,meteohub,2013-03-11 01:03:00,
2013-03-10 18:08:00,45.5,41.2,30.43,North,8,0.0,1.0,85,0.00,,,0.00,meteohub,2013-03-11 01:08:00,
2013-03-10 18:14:00,45.3,41.7,30.43,North,9,0.0,1.0,87,0.00,,,0.00,meteohub,2013-03-11 01:14:00,
2013-03-10 18:19:00,45.3,42.3,30.43,NNE,26,0.0,3.0,89,0.00,,,0.00,meteohub,2013-03-11 01:19:00,
2013-03-10 18:24:00,45.3,42.6,30.43,North,4,1.0,4.0,90,0.00,,,0.00,meteohub,2013-03-11 01:24:00,
2013-03-10 18:29:00,45.1,42.6,30.43,West,278,0.0,4.0,91,0.00,,,0.00,meteohub,2013-03-11 01:29:00,
2013-03-10 18:34:00,45.0,42.4,30.43,North,6,0.0,4.0,91,0.00,,,0.00,meteohub,2013-03-11 01:34:00,
2013-03-10 18:39:00,44.8,42.6,30.43,NNE,23,1.0,3.0,92,0.00,,,0.00,meteohub,2013-03-11 01:39:00,
2013-03-10 18:45:00,44.4,42.3,30.43,NNW,327,0.0,3.0,92,0.00,,,0.00,meteohub,2013-03-11 01:45:00,
2013-03-10 18:50:00,44.4,42.3,30.43,NNE,19,1.0,4.0,92,0.00,,,0.00,meteohub,2013-03-11 01:50:00,
2013-03-10 18:55:00,44.2,42.1,30.43,WNW,301,1.0,4.0,92,0.00,,,0.00,meteohub,2013-03-11 01:55:00,
2013-03-10 19:00:00,44.2,42.3,30.43,North,9,0.0,2.0,93,0.00,,,0.00,meteohub,2013-03-11 02:00:00,
2013-03-10 19:05:00,44.1,42.1,30.43,NW,317,0.0,1.0,93,0.00,,,0.00,meteohub,2013-03-11 02:05:00,
2013-03-10 19:10:00,44.1,42.1,30.43,NW,326,0.0,2.0,93,0.00,,,0.00,meteohub,2013-03-11 02:10:00,
2013-03-10 19:16:00,44.1,42.1,30.43,NNE,29,0.0,2.0,93,0.00,,,0.00,meteohub,2013-03-11 02:16:00,
2013-03-10 19:21:00,43.9,41.9,30.43,North,352,0.0,2.0,93,0.00,,,0.00,meteohub,2013-03-11 02:21:00,
2013-03-10 19:26:00,43.9,41.9,30.43,NW,316,0.0,2.0,93,0.00,,,0.00,meteohub,2013-03-11 02:26:00,
2013-03-10 19:31:00,43.9,41.9,30.43,West,277,0.0,2.0,93,0.00,,,0.00,meteohub,2013-03-11 02:31:00,
2013-03-10 19:36:00,43.9,42.3,30.44,West,280,0.0,1.0,94,0.00,,,0.00,meteohub,2013-03-11 02:36:00,
2013-03-10 19:41:00,43.9,42.3,30.43,WNW,285,0.0,1.0,94,0.00,,,0.00,meteohub,2013-03-11 02:41:00,
2013-03-10 19:46:00,43.9,41.9,30.43,West,271,0.0,1.0,93,0.00,,,0.00,meteohub,2013-03-11 02:46:00,
2013-03-10 19:52:00,43.9,42.3,30.43,West,271,0.0,2.0,94,0.00,,,0.00,meteohub,2013-03-11 02:52:00,
2013-03-10 19:57:00,43.9,41.9,30.43,West,271,0.0,2.0,93,0.00,,,0.00,meteohub,2013-03-11 02:57:00,
2013-03-10 20:02:00,43.9,42.3,30.43,West,271,0.0,2.0,94,0.00,,,0.00,meteohub,2013-03-11 03:02:00,
2013-03-10 20:07:00,43.7,42.1,30.43,West,271,0.0,0.0,94,0.00,,,0.00,meteohub,2013-03-11 03:07:00,
2013-03-10 20:12:00,43.7,42.1,30.43,West,272,0.0,0.0,94,0.00,,,0.00,meteohub,2013-03-11 03:12:00,
2013-03-10 20:17:00,43.5,41.9,30.43,West,272,0.0,0.0,94,0.00,,,0.00,meteohub,2013-03-11 03:17:00,
2013-03-10 20:22:00,43.5,41.9,30.43,West,273,0.0,0.0,94,0.00,,,0.00,meteohub,2013-03-11 03:22:00,
2013-03-10 20:28:00,43.5,41.9,30.43,West,263,0.0,1.0,94,0.00,,,0.00,meteohub,2013-03-11 03:28:00,
2013-03-10 20:33:00,43.5,41.9,30.43,NW,321,0.0,2.0,94,0.00,,,0.00,meteohub,2013-03-11 03:33:00,
2013-03-10 20:38:00,43.5,41.9,30.43,NW,311,0.0,2.0,94,0.00,,,0.00,meteohub,2013-03-11 03:38:00,
2013-03-10 20:43:00,43.5,42.3,30.43,WNW,282,0.0,2.0,95,0.00,,,0.00,meteohub,2013-03-11 03:43:00,
2013-03-10 20:48:00,43.3,42.1,30.43,West,273,0.0,1.0,95,0.00,,,0.00,meteohub,2013-03-11 03:48:00,
2013-03-10 20:53:00,43.3,42.1,30.43,West,272,0.0,1.0,95,0.00,,,0.00,meteohub,2013-03-11 03:53:00,
2013-03-10 20:59:00,43.3,42.1,30.43,West,273,0.0,1.0,95,0.00,,,0.00,meteohub,2013-03-11 03:59:00,
2013-03-10 21:00:00,43.3,42.1,30.43,West,273,0.0,1.0,95,0.00,,,0.00,meteohub,2013-03-11 04:00:00,
2013-03-10 21:01:00,43.3,42.1,30.43,West,273,0.0,1.0,95,0.00,,,0.00,meteohub,2013-03-11 04:01:00,
2013-03-10 21:02:00,43.3,42.1,30.43,West,273,0.0,1.0,95,0.00,,,0.00,meteohub,2013-03-11 04:02:00,
2013-03-10 21:07:00,43.3,42.1,30.43,West,272,0.0,1.0,95,0.00,,,0.00,meteohub,2013-03-11 04:07:00,
2013-03-10 21:12:00,43.2,41.9,30.43,West,273,0.0,0.0,95,0.00,,,0.00,meteohub,2013-03-11 04:12:00,
2013-03-10 21:17:00,43.2,41.9,30.43,West,273,0.0,0.0,95,0.00,,,0.00,meteohub,2013-03-11 04:17:00,
2013-03-10 21:23:00,43.0,41.7,30.43,West,272,0.0,0.0,95,0.00,,,0.00,meteohub,2013-03-11 04:23:00,
2013-03-10 21:28:00,42.8,41.5,30.43,West,272,0.0,0.0,95,0.00,,,0.00,meteohub,2013-03-11 04:28:00,
2013-03-10 21:33:00,42.6,41.4,30.43,West,273,0.0,0.0,95,0.00,,,0.00,meteohub,2013-03-11 04:33:00,
2013-03-10 21:38:00,42.4,41.2,30.43,West,272,0.0,0.0,95,0.00,,,0.00,meteohub,2013-03-11 04:38:00,
2013-03-10 21:43:00,42.4,41.4,30.43,West,272,0.0,0.0,96,0.00,,,0.00,meteohub,2013-03-11 04:43:00,
2013-03-10 21:49:00,42.4,41.4,30.43,West,276,0.0,0.0,96,0.00,,,0.00,meteohub,2013-03-11 04:49:00,
2013-03-10 21:54:00,42.4,41.4,30.43,WNW,283,0.0,1.0,96,0.00,,,0.00,meteohub,2013-03-11 04:54:00,
2013-03-10 21:59:00,42.4,41.4,30.43,WNW,283,0.0,1.0,96,0.00,,,0.00,meteohub,2013-03-11 04:59:00,
2013-03-10 22:05:00,42.4,41.4,30.43,WNW,284,0.0,1.0,96,0.00,,,0.00,meteohub,2013-03-11 05:05:00,
2013-03-10 22:10:00,42.4,41.4,30.43,WNW,283,0.0,1.0,96,0.00,,,0.00,meteohub,2013-03-11 05:10:00,
2013-03-10 22:15:00,42.4,41.4,30.43,WNW,283,0.0,0.0,96,0.00,,,0.00,meteohub,2013-03-11 05:15:00,
2013-03-10 22:21:00,42.3,41.2,30.43,WNW,283,0.0,0.0,96,0.00,,,0.00,meteohub,2013-03-11 05:21:00,
2013-03-10 22:26:00,42.3,41.2,30.43,WNW,284,0.0,0.0,96,0.00,,,0.00,meteohub,2013-03-11 05:26:00,
2013-03-10 22:31:00,42.3,41.2,30.43,WNW,283,0.0,1.0,96,0.00,,,0.00,meteohub,2013-03-11 05:31:00,
2013-03-10 22:36:00,42.3,41.2,30.43,WNW,284,0.0,1.0,96,0.00,,,0.00,meteohub,2013-03-11 05:36:00,
2013-03-10 22:41:00,42.3,41.2,30.43,WNW,284,0.0,1.0,96,0.00,,,0.00,meteohub,2013-03-11 05:41:00,
2013-03-10 22:47:00,42.4,41.4,30.43,WNW,283,0.0,0.0,96,0.00,,,0.00,meteohub,2013-03-11 05:47:00,
2013-03-10 22:52:00,42.4,41.4,30.43,WNW,283,0.0,0.0,96,0.00,,,0.00,meteohub,2013-03-11 05:52:00,
2013-03-10 22:57:00,42.4,41.4,30.43,WNW,283,0.0,0.0,96,0.00,,,0.00,meteohub,2013-03-11 05:57:00,
2013-03-10 23:02:00,42.4,41.4,30.43,WNW,284,0.0,0.0,96,0.00,,,0.00,meteohub,2013-03-11 06:02:00,
2013-03-10 23:07:00,42.4,41.4,30.43,WNW,284,0.0,0.0,96,0.00,,,0.00,meteohub,2013-03-11 06:07:00,
2013-03-10 23:13:00,42.4,41.4,30.43,WNW,284,0.0,0.0,96,0.00,,,0.00,meteohub,2013-03-11 06:13:00,
2013-03-10 23:18:00,42.4,41.4,30.43,WNW,284,0.0,0.0,96,0.00,,,0.00,meteohub,2013-03-11 06:18:00,
2013-03-10 23:23:00,42.4,41.4,30.43,WNW,283,0.0,0.0,96,0.00,,,0.00,meteohub,2013-03-11 06:23:00,
2013-03-10 23:28:00,42.4,41.4,30.43,WNW,284,0.0,0.0,96,0.00,,,0.00,meteohub,2013-03-11 06:28:00,
2013-03-10 23:33:00,42.4,41.4,30.43,WNW,284,0.0,0.0,96,0.00,,,0.00,meteohub,2013-03-11 06:33:00,
2013-03-10 23:39:00,42.4,41.4,30.43,WNW,283,0.0,0.0,96,0.00,,,0.00,meteohub,2013-03-11 06:39:00,
2013-03-10 23:44:00,42.4,41.4,30.43,WNW,283,0.0,0.0,96,0.00,,,0.00,meteohub,2013-03-11 06:44:00,
2013-03-10 23:49:00,42.4,41.4,30.43,WNW,283,0.0,0.0,96,0.00,,,0.00,meteohub,2013-03-11 06:49:00,
2013-03-10 23:55:00,42.4,41.4,30.43,WNW,283,0.0,0.0,96,0.00,,,0.00,meteohub,2013-03-11 06:55:00,